Time;durP1;ratioP1;P1;durP2;ratioP2;P2;SDS_P1;SDS_P2;PMS_P1;PMS_P2;Temp;Humidity;BMP_temperature;BMP_pressure;BME280_temperature;BME280_humidity;BME280_pressure;Samples;Min_cycle;Max_cycle;Signal;HPM_P1;HPM_P2
2023/04/20 00:02:25;;;;;;;;;;;11.20;55.10;;;9.82;55.25;101720.06;12253786;19;19915;-84
2023/04/20 00:06:30;;;;;;;;;;;11.20;54.60;;;9.74;55.16;101710.75;12258165;19;19926;-84
2023/04/20 00:10:31;;;;;;;;;;;11.10;54.80;;;9.80;55.22;101719.25;12252077;19;19948;-84
2023/04/20 00:14:32;;;;;;;;;;;11.20;54.50;;;9.75;55.35;101696.81;12257227;19;19914;-84
2023/04/20 00:18:34;;;;;;;;;;;11.20;54.40;;;9.77;55.29;101708.94;12256654;19;19921;-84
2023/04/20 00:22:36;;;;;;;;;;;11.20;55.20;;;9.77;55.29;101698.50;12251880;19;19918;-84
2023/04/20 00:26:37;;;;;;;;;;;11.20;54.50;;;9.71;55.41;101691.75;12256117;19;20344;-84
2023/04/20 00:30:39;;;;;;;;;;;11.20;54.60;;;9.84;55.37;101719.09;12250490;19;19913;-84
2023/04/20 00:34:40;;;;;;;;;;;11.20;54.40;;;9.74;55.42;101697.72;12254543;19;19922;-84
2023/04/20 00:38:42;;;;;;;;;;;11.20;54.50;;;9.81;55.26;101713.16;12255168;19;19911;-84
2023/04/20 00:42:44;;;;;;;;;;;11.20;54.60;;;9.83;55.48;101706.09;12252213;19;19911;-84
2023/04/20 00:46:45;;;;;;;;;;;11.20;54.40;;;9.79;55.53;101683.66;12254358;19;19927;-84
2023/04/20 00:50:48;;;;;;;;;;;11.20;55.00;;;9.52;55.32;101642.88;12251579;19;19917;-84
2023/04/20 00:54:50;;;;;;;;;;;11.20;54.30;;;9.69;55.30;101670.09;12252499;19;19966;-84
2023/04/20 00:58:51;;;;;;;;;;;11.20;54.10;;;9.70;55.38;101674.41;12252394;19;19911;-84
2023/04/20 01:02:53;;;;;;;;;;;11.20;53.90;;;9.74;55.19;101696.84;12249671;19;19954;-84
2023/04/20 01:06:54;;;;;;;;;;;11.20;53.70;;;9.77;55.45;101701.13;12253001;19;19926;-84
2023/04/20 01:10:56;;;;;;;;;;;11.20;53.70;;;9.83;55.41;101711.31;12249942;19;19915;-84
2023/04/20 01:14:58;;;;;;;;;;;11.10;54.00;;;9.75;55.47;101701.19;12253949;19;20304;-84
2023/04/20 01:18:59;;;;;;;;;;;11.10;54.00;;;9.77;55.44;101701.97;12254117;19;19930;-84
2023/04/20 01:23:00;;;;;;;;;;;11.10;53.80;;;9.66;55.45;101689.31;12249379;19;19922;-84
2023/04/20 01:27:02;;;;;;;;;;;11.10;53.80;;;9.69;55.50;101694.44;12253181;19;19923;-84
2023/04/20 01:31:06;;;;;;;;;;;11.00;53.80;;;9.71;55.39;101695.22;12249219;19;19918;-84
2023/04/20 01:35:08;;;;;;;;;;;11.00;53.90;;;9.45;55.37;101651.84;12248541;19;19922;-84
2023/04/20 01:39:12;;;;;;;;;;;11.00;53.80;;;9.65;55.34;101682.41;12250737;19;19970;-84
2023/04/20 01:43:17;;;;;;;;;;;11.00;54.00;;;9.52;55.48;101666.34;12243971;19;19922;-84
2023/04/20 01:47:19;;;;;;;;;;;11.00;53.80;;;9.51;55.49;101672.47;12250453;19;19926;-83
2023/04/20 01:51:21;;;;;;;;;;;11.00;53.60;;;9.54;55.32;101676.72;12245608;19;20287;-83
2023/04/20 01:55:23;;;;;;;;;;;11.00;53.70;;;9.50;55.36;101676.00;12248973;19;19957;-84
2023/04/20 01:59:27;;;;;;;;;;;11.00;54.00;;;9.28;55.46;101638.53;12244147;19;20249;-84
2023/04/20 02:03:28;;;;;;;;;;;10.90;53.90;;;9.52;55.28;101675.91;12251652;19;20230;-85
2023/04/20 02:07:30;;;;;;;;;;;10.90;53.70;;;9.50;55.59;101672.50;12253111;19;19915;-84
2023/04/20 02:11:31;;;;;;;;;;;10.90;53.80;;;9.61;55.57;101701.66;12247037;19;20629;-84
2023/04/20 02:15:33;;;;;;;;;;;10.90;53.70;;;9.51;55.54;101676.84;12252053;19;20344;-84
2023/04/20 02:19:35;;;;;;;;;;;11.00;53.70;;;9.65;55.54;101695.44;12253305;19;19931;-84
2023/04/20 02:23:37;;;;;;;;;;;11.00;53.90;;;9.38;55.48;101655.56;12248530;19;19974;-84
2023/04/20 02:27:38;;;;;;;;;;;11.00;54.10;;;9.53;55.63;101675.00;12249776;19;19907;-84
2023/04/20 02:31:40;;;;;;;;;;;11.00;53.70;;;9.64;55.59;101691.16;12246155;19;19930;-84
2023/04/20 02:35:41;;;;;;;;;;;11.00;53.70;;;9.59;55.61;101682.63;12249604;19;19911;-84
2023/04/20 02:39:45;;;;;;;;;;;11.00;53.80;;;9.65;55.71;101687.63;12249206;19;19914;-84
2023/04/20 02:43:46;;;;;;;;;;;11.00;53.70;;;9.65;55.63;101692.00;12245089;19;19919;-84
2023/04/20 02:47:48;;;;;;;;;;;11.10;53.70;;;9.74;55.80;101702.06;12247515;19;20352;-84
2023/04/20 02:51:50;;;;;;;;;;;11.10;53.70;;;9.76;55.68;101705.50;12245306;19;19944;-84
2023/04/20 02:55:52;;;;;;;;;;;11.10;53.70;;;9.79;55.72;101707.13;12258920;19;19923;-84
2023/04/20 03:00:02;;;;;;;;;;;11.20;53.70;;;9.76;55.64;101689.84;12260302;19;19988;-84
2023/04/20 03:04:18;;;;;;;;;;;11.20;53.70;;;9.79;55.75;101689.72;12258508;19;19944;-84
2023/04/20 03:08:48;;;;;;;;;;;11.20;53.70;;;9.80;55.77;101691.41;12258900;19;19940;-84
2023/04/20 03:13:10;;;;;;;;;;;11.20;53.70;;;9.67;55.64;101664.09;12255705;19;19978;-84
2023/04/20 03:17:34;;;;;;;;;;;11.30;53.80;;;9.82;55.90;101693.97;12258601;19;19915;-84
2023/04/20 03:21:36;;;;;;;;;;;11.20;53.70;;;9.81;55.86;101708.78;12256064;19;20266;-84
2023/04/20 03:25:37;;;;;;;;;;;11.20;53.70;;;9.79;55.86;101692.34;12258466;19;19911;-84
2023/04/20 03:29:43;;;;;;;;;;;11.20;53.90;;;9.66;55.90;101689.31;12257824;19;19930;-84
2023/04/20 03:33:45;;;;;;;;;;;11.20;53.80;;;9.79;55.81;101707.13;12253841;19;19911;-84
2023/04/20 03:37:47;;;;;;;;;;;11.20;53.80;;;9.76;55.94;101689.84;12259416;19;19915;-84
2023/04/20 03:41:49;;;;;;;;;;;11.20;53.90;;;9.72;55.90;101694.31;12252508;19;19915;-84
2023/04/20 03:50:54;;;;;;;;;;;11.20;53.80;;;9.84;55.80;101713.03;12246808;19;20266;-84
2023/04/20 03:54:56;;;;;;;;;;;11.20;53.80;;;9.84;55.84;101713.03;12255176;19;19920;-84
2023/04/20 03:58:58;;;;;;;;;;;11.20;53.90;;;9.82;55.94;101717.47;12256869;19;19930;-83
2023/04/20 04:03:01;;;;;;;;;;;11.20;53.80;;;9.84;55.95;101713.88;12253540;19;19937;-84
2023/04/20 04:07:03;;;;;;;;;;;11.20;53.90;;;9.48;55.84;101651.72;12251130;19;19978;-84
2023/04/20 04:11:04;;;;;;;;;;;11.30;53.90;;;9.76;55.90;101692.44;12252390;19;19922;-84
2023/04/20 04:15:07;;;;;;;;;;;11.30;53.90;;;9.90;55.96;101723.25;12256684;19;19932;-84
2023/04/20 04:19:14;;;;;;;;;;;11.30;53.90;;;9.81;55.93;101703.56;12257032;19;19918;-84
2023/04/20 04:23:16;;;;;;;;;;;11.30;53.80;;;9.88;55.93;101719.84;12253564;19;20014;-84
2023/04/20 04:27:22;;;;;;;;;;;11.30;53.90;;;9.69;55.94;101694.44;12255950;19;19919;-84
2023/04/20 04:31:31;;;;;;;;;;;11.30;53.90;;;9.82;56.07;101714.84;12245360;19;19931;-84
2023/04/20 04:35:40;;;;;;;;;;;11.30;53.90;;;9.89;55.98;101732.00;12252624;19;19918;-85
2023/04/20 04:39:43;;;;;;;;;;;11.50;53.80;;;9.87;56.07;101744.22;12253977;19;19918;-84
2023/04/20 04:43:52;;;;;;;;;;;11.30;53.90;;;9.85;56.04;101751.25;12249908;19;20414;-84
2023/04/20 04:47:59;;;;;;;;;;;11.30;53.70;;;9.86;56.10;101748.59;12252732;19;19915;-84
2023/04/20 04:52:01;;;;;;;;;;;11.30;53.90;;;9.51;56.16;101692.47;12255179;19;19911;-84
2023/04/20 04:56:03;;;;;;;;;;;11.30;53.90;;;9.89;55.92;101743.28;12257695;19;19929;-85
2023/04/20 05:00:08;;;;;;;;;;;11.30;54.00;;;9.79;56.01;101720.19;12253764;19;19915;-85
2023/04/20 05:04:09;;;;;;;;;;;11.20;54.00;;;9.88;55.99;101746.81;12255900;19;20285;-85
2023/04/20 05:08:11;;;;;;;;;;;11.30;54.00;;;9.77;56.03;101737.63;12257040;19;19926;-85
2023/04/20 05:12:13;;;;;;;;;;;11.20;53.80;;;9.75;56.10;101733.34;12252846;19;19923;-85
2023/04/20 05:16:15;;;;;;;;;;;11.30;53.90;;;9.80;56.25;101733.16;12257219;19;19943;-84
2023/04/20 05:20:16;;;;;;;;;;;11.30;53.90;;;9.91;56.18;101757.13;12252617;19;19919;-85
2023/04/20 05:24:18;;;;;;;;;;;11.30;53.80;;;9.87;56.05;101747.69;12257292;19;19929;-85
2023/04/20 05:28:20;;;;;;;;;;;11.30;53.90;;;9.90;56.17;101759.78;12255313;19;19915;-84
2023/04/20 05:32:22;;;;;;;;;;;11.30;53.90;;;9.89;56.09;101748.50;12250923;19;19930;-84
2023/04/20 05:36:23;;;;;;;;;;;11.30;53.80;;;9.80;56.21;101754.03;12256538;19;19974;-87
2023/04/20 05:40:25;;;;;;;;;;;11.30;53.80;;;9.84;56.13;101760.00;12253562;19;19923;-84
2023/04/20 05:44:27;;;;;;;;;;;11.30;53.80;;;9.88;56.21;101764.19;12250534;19;20291;-83
2023/04/20 05:48:28;;;;;;;;;;;11.30;53.90;;;9.58;56.15;101720.03;12249363;19;19923;-85
2023/04/20 05:52:30;;;;;;;;;;;11.30;53.90;;;9.79;56.12;101743.66;12250496;19;20013;-85
2023/04/20 05:56:32;;;;;;;;;;;11.30;54.00;;;9.90;56.23;101763.22;12253968;19;19918;-85
2023/04/20 06:00:33;;;;;;;;;;;11.30;53.90;;;9.89;56.27;101778.94;12254194;19;19935;-85
2023/04/20 06:04:35;;;;;;;;;;;11.30;53.80;;;9.80;56.23;101759.22;12250954;19;20337;-84
2023/04/20 06:08:36;;;;;;;;;;;11.30;54.20;;;9.82;56.06;101760.03;12250745;19;20394;-86
2023/04/20 06:12:38;;;;;;;;;;;11.30;54.00;;;9.85;56.20;101780.78;12250901;19;19915;-84
2023/04/20 06:16:39;;;;;;;;;;;11.30;53.90;;;9.83;56.38;101789.59;12250542;19;19982;-83
2023/04/20 06:20:44;;;;;;;;;;;11.30;53.90;;;9.80;56.27;101774.88;12247201;19;19923;-85
2023/04/20 06:24:45;;;;;;;;;;;11.30;53.90;;;9.60;56.26;101754.72;12250222;19;19911;-85
2023/04/20 06:28:47;;;;;;;;;;;11.30;53.90;;;9.89;56.21;101795.44;12246899;19;20332;-83
2023/04/20 06:32:48;;;;;;;;;;;11.30;53.90;;;9.91;56.23;101787.56;12247260;19;19922;-84
2023/04/20 06:36:49;;;;;;;;;;;11.30;54.00;;;9.91;56.36;101787.56;12249209;19;20315;-83
2023/04/20 06:40:51;;;;;;;;;;;11.40;54.10;;;9.97;56.25;101797.78;12248606;19;19911;-84
2023/04/20 06:44:55;;;;;;;;;;;11.30;54.00;;;9.87;56.47;101770.31;12246599;19;19935;-85
2023/04/20 06:48:56;;;;;;;;;;;11.40;54.00;;;9.73;56.43;101758.63;12248352;19;19919;-85
2023/04/20 06:52:57;;;;;;;;;;;11.40;54.40;;;9.98;56.31;101789.91;12246154;19;19915;-85
2023/04/20 06:57:00;;;;;;;;;;;11.40;54.20;;;10.04;56.40;101782.75;12246537;19;19915;-85
2023/04/20 07:01:01;;;;;;;;;;;11.50;54.10;;;10.11;56.54;101789.47;12245249;19;19931;-84
2023/04/20 07:05:03;;;;;;;;;;;11.50;54.30;;;9.99;56.48;101764.69;12246357;19;20338;-85
2023/04/20 07:09:04;;;;;;;;;;;11.50;54.30;;;10.10;56.54;101796.47;12246347;19;19911;-84
2023/04/20 07:13:06;;;;;;;;;;;11.50;54.90;;;10.05;56.50;101793.16;12242675;19;19922;-84
2023/04/20 07:17:07;;;;;;;;;;;11.50;54.70;;;10.10;56.66;101798.19;12247916;19;20607;-84
2023/04/20 07:21:08;;;;;;;;;;;11.60;54.60;;;10.22;56.58;101809.97;12244036;19;19931;-84
2023/04/20 07:25:10;;;;;;;;;;;11.70;54.80;;;10.28;56.53;101812.38;12245618;19;20435;-84
2023/04/20 07:29:11;;;;;;;;;;;11.70;54.80;;;10.31;56.53;101809.66;12243070;19;19923;-84
2023/04/20 07:33:12;;;;;;;;;;;11.70;55.20;;;10.28;56.55;101797.56;12243053;19;19923;-84
2023/04/20 07:37:14;;;;;;;;;;;11.70;54.80;;;10.37;56.73;101819.91;12244689;19;19970;-84
2023/04/20 07:41:15;;;;;;;;;;;12.00;55.40;;;10.38;56.68;101817.22;12250312;19;19919;-85
2023/04/20 07:45:18;;;;;;;;;;;11.80;55.30;;;10.38;56.64;101814.59;12257810;19;19944;-85
2023/04/20 07:49:19;;;;;;;;;;;11.80;55.10;;;10.20;56.57;101783.91;12254366;19;19921;-84
2023/04/20 07:53:21;;;;;;;;;;;11.90;55.10;;;10.48;56.80;101824.72;12249546;19;19907;-84
2023/04/20 07:57:23;;;;;;;;;;;11.90;54.90;;;10.33;56.67;101782.56;12256937;19;19918;-84
2023/04/20 08:01:25;;;;;;;;;;;11.90;54.80;;;10.41;56.82;101782.31;12255911;19;19948;-85
2023/04/20 08:05:26;;;;;;;;;;;12.00;54.80;;;10.62;56.80;101807.59;12260766;19;19925;-85
2023/04/20 08:09:28;;;;;;;;;;;12.10;55.90;;;10.79;56.62;101825.25;12256564;19;20248;-84
2023/04/20 08:13:31;;;;;;;;;;;12.20;55.80;;;10.85;56.71;101829.38;12253018;19;20329;-84
2023/04/20 08:17:32;;;;;;;;;;;12.20;55.30;;;10.83;56.92;101823.38;12252802;19;19923;-83
2023/04/20 08:21:39;;;;;;;;;;;12.30;55.40;;;10.78;56.74;101796.56;12251542;19;19926;-84
2023/04/20 08:25:41;;;;;;;;;;;12.30;55.10;;;10.60;56.82;101778.06;12254216;19;19922;-84
2023/04/20 08:29:43;;;;;;;;;;;12.40;54.70;;;10.99;56.92;101837.56;12252155;19;20770;-84
2023/04/20 08:33:45;;;;;;;;;;;12.40;54.80;;;10.94;56.88;101818.59;12250776;19;19914;-85
2023/04/20 08:37:46;;;;;;;;;;;12.50;54.70;;;11.06;56.66;101836.38;12254801;19;19918;-85
2023/04/20 08:41:54;;;;;;;;;;;12.50;54.70;;;10.85;56.74;101806.75;12249232;19;19952;-84
2023/04/20 08:46:03;;;;;;;;;;;12.50;54.60;;;11.03;56.83;101833.91;12252969;19;19944;-85
2023/04/20 08:50:05;;;;;;;;;;;12.60;54.50;;;11.12;56.78;101831.81;12249847;19;19919;-84
2023/04/20 08:54:06;;;;;;;;;;;12.60;54.60;;;11.20;56.78;101843.69;12251138;19;19933;-84
2023/04/20 08:58:08;;;;;;;;;;;12.60;54.60;;;11.06;56.62;101823.31;12253381;19;19915;-85
2023/04/20 09:02:11;;;;;;;;;;;12.60;54.70;;;10.97;56.80;101802.78;12247535;19;19918;-85
2023/04/20 09:06:14;;;;;;;;;;;12.60;55.00;;;11.16;56.76;101844.72;12251989;19;19919;-87
2023/04/20 09:10:16;;;;;;;;;;;12.60;54.70;;;11.19;56.70;101846.38;12244653;19;20358;-85
2023/04/20 09:14:19;;;;;;;;;;;12.60;54.80;;;11.12;56.77;101826.59;12252391;19;19922;-84
2023/04/20 09:18:22;;;;;;;;;;;12.70;54.80;;;11.13;56.66;101831.78;12247346;19;19927;-84
2023/04/20 09:22:36;;;;;;;;;;;12.60;54.80;;;10.88;56.83;101800.50;12247699;19;19915;-84
2023/04/20 09:26:37;;;;;;;;;;;12.60;54.80;;;11.14;56.69;101823.00;12249980;19;19974;-85
2023/04/20 09:30:47;;;;;;;;;;;12.50;54.80;;;10.89;56.82;101776.09;12247351;19;19929;-84
2023/04/20 09:34:49;;;;;;;;;;;12.60;55.50;;;11.15;56.96;101802.94;12249816;19;19915;-86
2023/04/20 09:39:02;;;;;;;;;;;12.60;55.50;;;11.02;56.97;101779.09;12250004;19;19943;-83
2023/04/20 09:43:17;;;;;;;;;;;12.60;55.80;;;11.29;56.87;101819.78;12245627;19;20248;-83
2023/04/20 09:47:21;;;;;;;;;;;12.70;56.50;;;11.25;56.90;101802.50;12248769;19;19922;-85
2023/04/20 09:51:26;;;;;;;;;;;12.70;55.60;;;11.33;56.89;101803.97;12246371;19;19927;-83
2023/04/20 09:55:30;;;;;;;;;;;12.70;55.40;;;11.37;56.99;101816.00;12249990;19;19944;-84
2023/04/20 09:59:32;;;;;;;;;;;12.80;56.00;;;11.44;56.89;101804.38;12249839;19;19933;-84
2023/04/20 10:03:33;;;;;;;;;;;12.80;55.60;;;11.49;57.03;101808.50;12242325;19;19925;-83
2023/04/20 10:07:35;;;;;;;;;;;12.90;56.70;;;11.62;56.99;101821.09;12249899;19;19922;-84
2023/04/20 10:11:42;;;;;;;;;;;12.90;56.50;;;11.31;56.92;101754.34;12246215;19;19911;-84
2023/04/20 10:15:44;;;;;;;;;;;13.00;56.10;;;11.73;56.93;101814.47;12250220;19;19928;-84
2023/04/20 10:19:46;;;;;;;;;;;13.10;55.40;;;11.75;57.25;101803.94;12247542;19;19919;-83
2023/04/20 10:23:51;;;;;;;;;;;13.10;55.90;;;11.59;57.14;101763.66;12246616;19;19936;-84
2023/04/20 10:28:03;;;;;;;;;;;13.20;55.70;;;11.90;57.26;101786.75;12245925;19;19926;-84
2023/04/20 10:32:05;;;;;;;;;;;13.30;55.80;;;12.08;57.54;101792.97;12244318;19;20349;-84
2023/04/20 10:36:06;;;;;;;;;;;13.40;56.40;;;12.21;57.27;101783.63;12247813;19;19919;-84
2023/04/20 10:40:09;;;;;;;;;;;13.60;56.80;;;12.45;57.37;101796.53;12248616;19;19952;-83
2023/04/20 10:44:11;;;;;;;;;;;13.70;57.30;;;12.46;57.34;101778.13;12246840;19;19918;-83
2023/04/20 10:48:12;;;;;;;;;;;13.90;56.30;;;12.55;57.27;101768.97;12247546;19;20250;-83
2023/04/20 10:52:14;;;;;;;;;;;14.00;56.00;;;12.81;57.21;101789.56;12244866;19;19928;-83
2023/04/20 10:56:15;;;;;;;;;;;14.20;55.80;;;12.73;57.27;101744.53;12247595;19;19919;-84
2023/04/20 11:00:19;;;;;;;;;;;14.30;55.90;;;12.88;57.32;101755.19;12246477;19;19978;-83
2023/04/20 11:04:31;;;;;;;;;;;14.40;55.60;;;13.01;57.29;101759.75;12248091;19;19931;-83
2023/04/20 11:08:40;;;;;;;;;;;14.50;55.80;;;13.18;57.34;101760.75;12245943;19;19925;-83
2023/04/20 11:12:41;;;;;;;;;;;14.60;55.60;;;13.24;57.36;101752.56;12244756;19;20275;-83
2023/04/20 11:16:51;;;;;;;;;;;14.70;55.70;;;13.41;57.24;101764.84;12253535;19;19918;-84
2023/04/20 11:20:54;;;;;;;;;;;14.80;55.70;;;13.48;57.46;101751.34;12258142;19;19917;-84
2023/04/20 11:25:04;;;;;;;;;;;14.90;55.60;;;13.61;57.23;101754.19;12260234;19;19915;-84
2023/04/20 11:29:06;;;;;;;;;;;15.00;55.80;;;13.56;57.22;101729.13;12259597;19;19923;-85
2023/04/20 11:33:08;;;;;;;;;;;15.10;55.30;;;13.64;57.19;101740.91;12258293;19;20322;-84
2023/04/20 11:37:11;;;;;;;;;;;15.10;55.50;;;13.73;57.20;101743.06;12259836;19;19919;-84
2023/04/20 11:41:13;;;;;;;;;;;15.20;55.40;;;13.81;57.09;101745.28;12258589;19;20349;-84
2023/04/20 11:45:15;;;;;;;;;;;15.20;55.20;;;13.82;57.25;101733.00;12261151;19;19925;-84
2023/04/20 11:49:17;;;;;;;;;;;15.30;55.40;;;13.95;57.09;101744.56;12257797;19;19922;-84
2023/04/20 11:53:18;;;;;;;;;;;15.40;55.40;;;14.01;57.07;101738.97;12253646;19;20290;-84
2023/04/20 11:57:22;;;;;;;;;;;15.40;55.70;;;14.07;57.12;101738.66;12259120;19;19935;-84
2023/04/20 12:01:23;;;;;;;;;;;15.40;55.30;;;14.14;57.14;101736.53;12257984;19;19953;-84
2023/04/20 12:05:25;;;;;;;;;;;15.50;55.30;;;14.16;57.24;101719.75;12259247;19;20325;-84
2023/04/20 12:09:26;;;;;;;;;;;15.60;55.40;;;14.27;57.43;101715.72;12260962;19;19918;-84
2023/04/20 12:13:28;;;;;;;;;;;15.70;55.60;;;14.45;57.35;101716.47;12257166;19;20313;-84
2023/04/20 12:17:29;;;;;;;;;;;15.70;55.90;;;14.59;57.27;101712.16;12265255;19;19925;-83
2023/04/20 12:21:31;;;;;;;;;;;15.90;55.50;;;14.72;57.40;101706.22;12261500;19;19933;-84
2023/04/20 12:25:33;;;;;;;;;;;16.10;55.50;;;14.76;57.37;101684.06;12259837;19;19911;-84
2023/04/20 12:29:34;;;;;;;;;;;16.20;55.20;;;15.05;57.17;101692.91;12261289;19;19927;-84
2023/04/20 12:33:36;;;;;;;;;;;16.40;54.90;;;15.22;57.41;101694.53;12258420;19;19919;-85
2023/04/20 12:37:37;;;;;;;;;;;16.60;54.80;;;15.44;57.29;101715.16;12260867;19;19936;-84
2023/04/20 12:41:40;;;;;;;;;;;16.70;54.80;;;15.41;57.14;101681.97;12257337;19;19923;-84
2023/04/20 12:45:41;;;;;;;;;;;16.90;53.10;;;15.61;56.97;101701.84;12259283;19;19927;-87
2023/04/20 12:49:43;;;;;;;;;;;17.00;53.60;;;15.67;57.05;101688.28;12256377;19;19926;-84
2023/04/20 12:53:44;;;;;;;;;;;17.10;54.10;;;15.70;56.86;101674.13;12256737;19;19922;-84
2023/04/20 12:57:46;;;;;;;;;;;17.20;53.90;;;15.77;56.98;101674.59;12258749;19;20329;-84
2023/04/20 13:01:47;;;;;;;;;;;17.20;54.10;;;15.88;56.80;101683.53;12256155;19;19927;-85
2023/04/20 13:05:49;;;;;;;;;;;17.30;53.20;;;15.84;56.88;101666.22;12257284;19;20329;-85
2023/04/20 13:09:50;;;;;;;;;;;17.30;54.10;;;15.95;57.03;101665.53;12254002;19;20244;-84
2023/04/20 13:13:52;;;;;;;;;;;17.30;53.90;;;15.99;56.87;101653.88;12240465;19;19950;-84
2023/04/20 13:17:53;;;;;;;;;;;17.40;54.00;;;16.07;57.00;101656.03;12252233;19;20349;-84
2023/04/20 13:21:55;;;;;;;;;;;17.50;54.10;;;15.93;56.81;101612.09;12253636;19;19930;-85
2023/04/20 13:25:59;;;;;;;;;;;17.50;53.70;;;16.19;57.01;101639.44;12255888;19;19915;-84
2023/04/20 13:30:01;;;;;;;;;;;17.70;53.90;;;16.32;56.80;101642.97;12252391;19;19930;-84
2023/04/20 13:34:02;;;;;;;;;;;17.70;53.80;;;16.38;56.66;101637.28;12251883;19;19926;-84
2023/04/20 13:38:04;;;;;;;;;;;17.80;53.20;;;16.50;56.68;101640.94;12249839;19;19927;-84
2023/04/20 13:42:06;;;;;;;;;;;17.90;53.60;;;16.53;56.61;101622.28;12249187;19;19922;-84
2023/04/20 13:46:07;;;;;;;;;;;18.00;53.60;;;16.68;56.66;101635.38;12251004;19;19918;-84
2023/04/20 13:50:09;;;;;;;;;;;18.10;52.50;;;16.71;56.75;101624.63;12248132;19;19939;-84
2023/04/20 13:54:11;;;;;;;;;;;18.10;53.30;;;16.81;56.74;101621.28;12251623;19;19980;-86
2023/04/20 13:58:12;;;;;;;;;;;18.20;53.30;;;16.93;56.72;101624.91;12250573;19;20359;-86
2023/04/20 14:02:14;;;;;;;;;;;18.30;53.30;;;16.90;56.62;101589.97;12246707;19;20030;-86
2023/04/20 14:06:16;;;;;;;;;;;18.40;52.30;;;17.08;56.35;101614.25;12248897;19;19940;-85
2023/04/20 14:10:18;;;;;;;;;;;18.50;52.50;;;17.19;56.31;101614.38;12247694;19;19926;-85
2023/04/20 14:14:20;;;;;;;;;;;18.60;51.40;;;17.28;56.34;101607.59;12246672;19;19926;-85
2023/04/20 14:18:21;;;;;;;;;;;18.60;51.50;;;17.32;56.40;101612.56;12243932;19;19978;-85
2023/04/20 14:22:23;;;;;;;;;;;18.70;52.80;;;17.45;56.48;101609.94;12233786;19;20269;-85
2023/04/20 14:26:26;;;;;;;;;;;18.80;52.20;;;17.46;56.34;101586.03;12241960;19;19986;-86
2023/04/20 14:30:28;;;;;;;;;;;18.90;52.30;;;17.69;56.43;101596.78;12246880;19;20313;-86
2023/04/20 14:34:29;;;;;;;;;;;19.00;52.60;;;17.82;56.27;101604.69;12247278;19;19919;-86
2023/04/20 14:38:31;;;;;;;;;;;19.10;51.30;;;17.92;56.09;101603.91;12250381;19;19927;-85
2023/04/20 14:42:32;;;;;;;;;;;19.20;51.30;;;17.83;55.97;101577.34;12247414;19;20425;-86
2023/04/20 14:46:34;;;;;;;;;;;19.30;52.20;;;17.95;56.00;101597.56;12247431;19;19922;-85
2023/04/20 14:50:36;;;;;;;;;;;19.30;50.30;;;17.95;56.14;101587.00;12248637;19;19940;-86
2023/04/20 14:54:37;;;;;;;;;;;19.40;51.80;;;17.73;56.06;101541.94;12257515;19;20358;-85
2023/04/20 14:58:41;;;;;;;;;;;19.30;51.30;;;17.92;55.73;101571.38;12261257;19;19942;-85
2023/04/20 15:02:42;;;;;;;;;;;19.30;50.80;;;17.95;55.98;101571.13;12256202;19;19967;-86
2023/04/20 15:06:44;;;;;;;;;;;19.40;52.00;;;17.80;55.74;101543.22;12258078;19;19919;-86
2023/04/20 15:10:45;;;;;;;;;;;19.40;51.60;;;17.99;55.53;101588.47;12256208;19;19939;-86
2023/04/20 15:14:47;;;;;;;;;;;19.40;49.30;;;17.84;55.62;101557.88;12256361;19;19918;-85
2023/04/20 15:18:50;;;;;;;;;;;19.30;48.40;;;17.89;55.55;101567.16;12261039;19;19911;-85
2023/04/20 15:22:52;;;;;;;;;;;19.30;50.90;;;18.03;55.66;101581.16;12251931;19;20257;-85
2023/04/20 15:26:53;;;;;;;;;;;19.30;50.70;;;18.05;55.45;101576.63;12259697;19;19923;-85
2023/04/20 15:30:55;;;;;;;;;;;19.30;49.00;;;18.02;55.29;101574.19;12252820;19;19943;-86
2023/04/20 15:34:56;;;;;;;;;;;19.40;50.40;;;18.12;55.23;101573.41;12259289;19;20329;-85
2023/04/20 15:38:57;;;;;;;;;;;19.40;50.70;;;18.09;55.17;101573.63;12249777;19;19942;-86
2023/04/20 15:42:59;;;;;;;;;;;19.40;50.90;;;18.05;55.17;101556.31;12237890;19;19919;-84
2023/04/20 15:47:01;;;;;;;;;;;19.40;51.10;;;18.14;55.16;101568.84;12253430;19;19949;-86
2023/04/20 15:51:03;;;;;;;;;;;19.40;50.80;;;18.05;55.28;101551.00;12249771;19;19918;-85
2023/04/20 15:55:07;;;;;;;;;;;19.40;51.20;;;18.19;55.14;101568.50;12215606;19;19931;-85
2023/04/20 15:59:08;;;;;;;;;;;19.50;51.20;;;18.22;55.07;101567.44;12241637;19;19922;-85
2023/04/20 16:03:10;;;;;;;;;;;19.50;51.90;;;18.25;55.04;101565.41;12177268;19;19919;-85
2023/04/20 16:07:12;;;;;;;;;;;19.50;51.30;;;18.27;55.00;101568.78;12243794;19;19915;-85
2023/04/20 16:11:13;;;;;;;;;;;19.50;50.20;;;18.18;55.00;101542.19;12245417;19;19922;-84
2023/04/20 16:15:15;;;;;;;;;;;19.50;50.80;;;18.35;55.30;101576.16;12249266;19;19922;-85
2023/04/20 16:19:16;;;;;;;;;;;19.60;50.10;;;18.35;54.80;101562.91;12198982;19;19918;-85
2023/04/20 16:23:18;;;;;;;;;;;19.60;49.00;;;18.38;54.77;101556.56;12255242;19;20254;-84
2023/04/20 16:27:19;;;;;;;;;;;19.60;49.70;;;18.46;54.84;101560.31;12256206;19;19914;-85
2023/04/20 16:31:20;;;;;;;;;;;19.60;50.50;;;18.48;54.99;101563.69;12251167;19;19926;-85
2023/04/20 16:35:22;;;;;;;;;;;19.70;50.20;;;18.47;54.61;101572.59;12255489;19;19929;-85
2023/04/20 16:39:23;;;;;;;;;;;19.70;50.80;;;18.37;54.68;101553.09;12255077;19;20357;-84
2023/04/20 16:43:24;;;;;;;;;;;19.70;50.60;;;18.39;54.83;101567.03;12252484;19;19915;-85
2023/04/20 16:47:26;;;;;;;;;;;19.70;50.20;;;18.43;54.56;101579.06;12252187;19;20341;-85
2023/04/20 16:51:28;;;;;;;;;;;19.70;50.90;;;18.35;54.59;101570.84;12249662;19;20008;-85
2023/04/20 16:55:31;;;;;;;;;;;19.70;50.80;;;18.01;54.71;101517.00;12254931;19;19923;-85
2023/04/20 16:59:32;;;;;;;;;;;19.60;50.50;;;18.23;54.63;101569.97;12255464;19;19953;-84
2023/04/20 17:03:34;;;;;;;;;;;19.60;50.40;;;18.30;54.49;101579.13;12250817;19;19945;-85
2023/04/20 17:07:35;;;;;;;;;;;19.60;49.50;;;18.23;54.66;101575.25;12253504;19;19918;-85
2023/04/20 17:11:38;;;;;;;;;;;19.50;50.60;;;18.16;54.66;101566.09;12247601;19;20014;-85
2023/04/20 17:15:41;;;;;;;;;;;19.50;50.90;;;18.26;54.39;101585.63;12244925;19;19996;-84
2023/04/20 17:19:43;;;;;;;;;;;19.50;51.00;;;18.21;54.70;101573.69;12250263;19;20273;-84
2023/04/20 17:23:46;;;;;;;;;;;19.40;50.80;;;18.13;54.39;101574.25;12238837;19;19919;-84
2023/04/20 17:27:47;;;;;;;;;;;19.40;51.20;;;18.14;54.38;101587.34;12247881;19;19982;-85
2023/04/20 17:31:49;;;;;;;;;;;19.40;51.40;;;18.03;54.49;101565.31;12250864;19;19907;-85
2023/04/20 17:35:50;;;;;;;;;;;19.30;51.30;;;18.02;54.56;101575.03;12252586;19;19915;-84
2023/04/20 17:39:52;;;;;;;;;;;19.30;51.60;;;17.77;54.45;101536.31;12251183;19;20447;-85
2023/04/20 17:43:53;;;;;;;;;;;19.20;51.00;;;17.89;54.16;101566.31;12248827;19;20349;-85
2023/04/20 17:47:55;;;;;;;;;;;19.20;51.50;;;17.96;54.31;101586.06;12251907;19;20333;-85
2023/04/20 17:51:57;;;;;;;;;;;19.10;51.50;;;17.83;54.16;101591.38;12246994;19;19915;-85
2023/04/20 17:55:58;;;;;;;;;;;19.10;51.50;;;17.75;54.21;101592.84;12249680;19;19946;-84
2023/04/20 17:59:59;;;;;;;;;;;19.00;51.60;;;17.72;54.48;101599.22;12253301;19;20397;-84
2023/04/20 18:04:01;;;;;;;;;;;18.90;51.30;;;17.58;54.17;101586.97;12245930;19;19923;-85
2023/04/20 18:08:03;;;;;;;;;;;18.90;51.70;;;17.50;54.24;101591.09;12255273;19;19911;-84
2023/04/20 18:12:11;;;;;;;;;;;18.80;51.50;;;17.56;54.24;101609.19;12248554;19;19919;-85
2023/04/20 18:16:13;;;;;;;;;;;18.70;51.50;;;17.41;54.10;101604.00;12257608;19;19919;-84
2023/04/20 18:20:14;;;;;;;;;;;18.60;51.50;;;17.35;54.05;101603.59;12250552;19;19918;-85